Bella Vista, AR (72714)

7:42 AM CDT on October 23, 2014 (GMT -0500)
Loch Lomond | Change Station
CLOSE
Current Station
Personal Weather Station
Location: Bella Vista, AR
Elevation: 1243 ft
Nearby Weather Stations

Elev 1243 ft 36.48 °N, 94.33 °W | Updated 10 minutes ago

Overcast
Overcast
55.1 °F
Feels Like 55.1 °F
N
0.0
Wind Variable Wind from SSW
Gusts 0.0 mph

Today
High -- | Low -- °F
--% Chance of Precip.
Yesterday
High -- | Low -- °F
Precip. -- in
7:31 AM 6:30 PM
Waning Crescent, 0% visible
Pressure 30.16 in
Visibility 10.0 miles
Clouds Few 5000 ft
Overcast 11000 ft
Dew Point 50 °F
Humidity 84%
Rainfall 0.00 in
Snow Depth Not available.
UV 0 out of 12
Pollen 1.90 out of 12
Air Quality Not available.
Flu Activity Sporadic
METAR KVBT 231235Z AUTO 16005KT 10SM FEW050 OVC110 13/08 A3016 RMK AO1

More Conditions Fewer Conditions

Pressure 30.16 in
Visibility 10.0 miles
Clouds Few 5000 ft
Overcast 11000 ft
Dew Point 50 °F
Humidity 84%
Rainfall 0.00 in
Snow Depth Not available.
UV 0 out of 12
Pollen 1.90 out of 12
Air Quality Not available.
Flu Activity Sporadic
METAR KVBT 231235Z AUTO 16005KT 10SM FEW050 OVC110 13/08 A3016 RMK AO1

More Conditions Fewer Conditions

Nowcast | as of 6:45 am CDT on October 23, 2014

At 6:45 am...National Weather Service Doppler radar indicated scattered areas of light rain across parts of eastern Oklahoma. The rain was moving east at 25 miles an hour. Through 9 am...scattered areas of light rain will continue to move across eastern Oklahoma and may begin to affect far western Arkansas as well. The rain will begin to taper off across parts of Osage and Pawnee counties. Rainfall amounts will generally be less than a tenth of an inch.

×

10-Day Weather Forecast

Almanac

Astronomy

Oct. 23, 2014 Rise Set
Actual Time 7:31 AM CDT 6:30 PM CDT
Civil Twilight 7:05 AM CDT 6:56 PM CDT
Nautical Twilight 6:35 AM CDT 7:26 PM CDT
Astronomical Twilight 6:05 AM CDT 7:56 PM CDT
Moon 7:12 AM CDT 6:32 PM CDT
Length of Visible Light 11h 51m
Length of Day
10h 58m
Tomorrow will be 2m 9s shorter.
Waning Crescent, 0% of the Moon is Illuminated
Today
Waning Crescent
Oct 23
New
Oct 30
First Quarter
Nov 6
Full
Nov 14
Last Quarter

Today's Extremes

State Highs State Lows

Community

WunderPhotos

Upload Photos

1,764,214 photos uploaded!

Nearby

Snow Depth

Station Depth Elevation
No new snow has been reported.

Earthquake Activity

City Distance Mag. Time & Date
No recent earthquake activity has been reported nearby.
Minimum magnitude displayed is 2.5.

Coastal Water Temperatures

Place Temperature
No Stations Reporting

Nearby Weather Stations